sensor_id;sensor_type;location;lat;lon;timestamp;P1;durP1;ratioP1;P2;durP2;ratioP2
35943;SDS011;74514;54.776;9.436;2024-02-14T00:00:04;38.50;;;14.90;;
35943;SDS011;74514;54.776;9.436;2024-02-14T00:02:33;44.72;;;15.68;;
35943;SDS011;74514;54.776;9.436;2024-02-14T00:05:00;36.65;;;15.32;;
35943;SDS011;74514;54.776;9.436;2024-02-14T00:07:30;33.20;;;14.60;;
35943;SDS011;74514;54.776;9.436;2024-02-14T00:09:57;45.13;;;16.27;;
35943;SDS011;74514;54.776;9.436;2024-02-14T00:12:25;28.45;;;14.05;;
35943;SDS011;74514;54.776;9.436;2024-02-14T00:14:52;37.80;;;15.73;;
35943;SDS011;74514;54.776;9.436;2024-02-14T00:17:20;44.67;;;17.70;;
35943;SDS011;74514;54.776;9.436;2024-02-14T00:19:47;30.73;;;13.07;;
35943;SDS011;74514;54.776;9.436;2024-02-14T00:22:15;44.05;;;16.58;;
35943;SDS011;74514;54.776;9.436;2024-02-14T00:24:43;42.88;;;18.08;;
35943;SDS011;74514;54.776;9.436;2024-02-14T00:27:10;40.38;;;14.60;;
35943;SDS011;74514;54.776;9.436;2024-02-14T00:29:38;47.72;;;16.20;;
35943;SDS011;74514;54.776;9.436;2024-02-14T00:32:05;43.30;;;15.90;;
35943;SDS011;74514;54.776;9.436;2024-02-14T00:34:42;38.28;;;15.88;;
35943;SDS011;74514;54.776;9.436;2024-02-14T00:37:09;38.90;;;14.45;;
35943;SDS011;74514;54.776;9.436;2024-02-14T00:39:37;41.80;;;14.77;;
35943;SDS011;74514;54.776;9.436;2024-02-14T00:42:05;41.08;;;15.52;;
35943;SDS011;74514;54.776;9.436;2024-02-14T00:44:32;34.15;;;14.60;;
35943;SDS011;74514;54.776;9.436;2024-02-14T00:47:00;43.30;;;15.75;;
35943;SDS011;74514;54.776;9.436;2024-02-14T00:49:29;44.45;;;16.48;;
35943;SDS011;74514;54.776;9.436;2024-02-14T00:51:57;27.42;;;11.93;;
35943;SDS011;74514;54.776;9.436;2024-02-14T00:54:24;39.45;;;15.27;;
35943;SDS011;74514;54.776;9.436;2024-02-14T00:56:51;40.20;;;16.08;;
35943;SDS011;74514;54.776;9.436;2024-02-14T00:59:19;43.92;;;16.73;;
35943;SDS011;74514;54.776;9.436;2024-02-14T01:01:46;45.38;;;15.90;;
35943;SDS011;74514;54.776;9.436;2024-02-14T01:04:13;41.40;;;15.10;;
35943;SDS011;74514;54.776;9.436;2024-02-14T01:06:41;44.20;;;18.15;;
35943;SDS011;74514;54.776;9.436;2024-02-14T01:09:08;46.60;;;16.65;;
35943;SDS011;74514;54.776;9.436;2024-02-14T01:11:35;41.90;;;15.55;;
35943;SDS011;74514;54.776;9.436;2024-02-14T01:14:05;41.60;;;16.58;;
35943;SDS011;74514;54.776;9.436;2024-02-14T01:16:33;45.63;;;17.35;;
35943;SDS011;74514;54.776;9.436;2024-02-14T01:19:00;45.15;;;16.27;;
35943;SDS011;74514;54.776;9.436;2024-02-14T01:21:28;42.63;;;16.30;;
35943;SDS011;74514;54.776;9.436;2024-02-14T01:23:55;45.75;;;17.92;;
35943;SDS011;74514;54.776;9.436;2024-02-14T01:26:23;40.50;;;14.40;;
35943;SDS011;74514;54.776;9.436;2024-02-14T01:28:50;44.10;;;16.15;;
35943;SDS011;74514;54.776;9.436;2024-02-14T01:31:17;40.80;;;16.52;;
35943;SDS011;74514;54.776;9.436;2024-02-14T01:33:45;40.03;;;15.23;;
35943;SDS011;74514;54.776;9.436;2024-02-14T01:36:13;45.15;;;16.77;;
35943;SDS011;74514;54.776;9.436;2024-02-14T01:38:40;42.10;;;16.33;;
35943;SDS011;74514;54.776;9.436;2024-02-14T01:41:10;42.42;;;16.88;;
35943;SDS011;74514;54.776;9.436;2024-02-14T01:43:37;46.70;;;17.48;;
35943;SDS011;74514;54.776;9.436;2024-02-14T01:46:05;40.85;;;17.08;;
35943;SDS011;74514;54.776;9.436;2024-02-14T01:48:36;40.63;;;15.70;;
35943;SDS011;74514;54.776;9.436;2024-02-14T01:51:07;44.42;;;16.00;;
35943;SDS011;74514;54.776;9.436;2024-02-14T01:53:36;43.78;;;16.98;;
35943;SDS011;74514;54.776;9.436;2024-02-14T01:56:04;47.90;;;16.23;;
35943;SDS011;74514;54.776;9.436;2024-02-14T01:58:33;40.00;;;15.50;;
35943;SDS011;74514;54.776;9.436;2024-02-14T02:01:01;43.53;;;15.82;;
35943;SDS011;74514;54.776;9.436;2024-02-14T02:03:30;45.30;;;15.73;;
35943;SDS011;74514;54.776;9.436;2024-02-14T02:06:00;40.28;;;15.98;;
35943;SDS011;74514;54.776;9.436;2024-02-14T02:08:27;48.67;;;18.35;;
35943;SDS011;74514;54.776;9.436;2024-02-14T02:10:55;42.30;;;15.50;;
35943;SDS011;74514;54.776;9.436;2024-02-14T02:13:42;47.25;;;16.83;;
35943;SDS011;74514;54.776;9.436;2024-02-14T02:16:30;42.65;;;17.88;;
35943;SDS011;74514;54.776;9.436;2024-02-14T02:19:30;46.00;;;15.82;;
35943;SDS011;74514;54.776;9.436;2024-02-14T02:22:18;51.85;;;17.25;;
35943;SDS011;74514;54.776;9.436;2024-02-14T02:25:02;47.95;;;19.00;;
35943;SDS011;74514;54.776;9.436;2024-02-14T02:27:33;47.00;;;18.52;;
35943;SDS011;74514;54.776;9.436;2024-02-14T02:30:24;51.70;;;19.92;;
35943;SDS011;74514;54.776;9.436;2024-02-14T02:32:52;46.20;;;17.00;;
35943;SDS011;74514;54.776;9.436;2024-02-14T02:35:20;59.35;;;18.15;;
35943;SDS011;74514;54.776;9.436;2024-02-14T02:38:08;43.83;;;19.60;;
35943;SDS011;74514;54.776;9.436;2024-02-14T02:40:55;44.35;;;17.77;;
35943;SDS011;74514;54.776;9.436;2024-02-14T02:43:42;53.40;;;19.33;;
35943;SDS011;74514;54.776;9.436;2024-02-14T02:46:48;46.72;;;19.20;;
35943;SDS011;74514;54.776;9.436;2024-02-14T02:49:35;44.42;;;17.52;;
35943;SDS011;74514;54.776;9.436;2024-02-14T02:52:24;48.00;;;17.90;;
35943;SDS011;74514;54.776;9.436;2024-02-14T02:55:11;43.67;;;18.23;;
35943;SDS011;74514;54.776;9.436;2024-02-14T02:57:46;45.05;;;19.23;;
35943;SDS011;74514;54.776;9.436;2024-02-14T03:00:13;50.63;;;19.10;;
35943;SDS011;74514;54.776;9.436;2024-02-14T03:02:47;48.08;;;19.88;;
35943;SDS011;74514;54.776;9.436;2024-02-14T03:05:36;45.25;;;19.77;;
35943;SDS011;74514;54.776;9.436;2024-02-14T03:08:14;41.47;;;17.48;;
35943;SDS011;74514;54.776;9.436;2024-02-14T03:11:06;46.70;;;19.08;;
35943;SDS011;74514;54.776;9.436;2024-02-14T03:13:53;40.40;;;18.55;;
35943;SDS011;74514;54.776;9.436;2024-02-14T03:16:40;44.17;;;18.65;;
35943;SDS011;74514;54.776;9.436;2024-02-14T03:19:08;46.97;;;20.20;;
35943;SDS011;74514;54.776;9.436;2024-02-14T03:21:35;51.08;;;19.45;;
35943;SDS011;74514;54.776;9.436;2024-02-14T03:24:03;55.75;;;20.27;;
35943;SDS011;74514;54.776;9.436;2024-02-14T03:26:36;55.40;;;20.42;;
35943;SDS011;74514;54.776;9.436;2024-02-14T03:29:04;49.20;;;19.88;;
35943;SDS011;74514;54.776;9.436;2024-02-14T03:31:34;49.72;;;20.27;;
35943;SDS011;74514;54.776;9.436;2024-02-14T03:34:02;46.08;;;19.42;;
35943;SDS011;74514;54.776;9.436;2024-02-14T03:36:30;51.08;;;19.95;;
35943;SDS011;74514;54.776;9.436;2024-02-14T03:38:58;51.25;;;21.35;;
35943;SDS011;74514;54.776;9.436;2024-02-14T03:41:26;56.85;;;21.10;;
35943;SDS011;74514;54.776;9.436;2024-02-14T03:43:54;54.58;;;19.65;;
35943;SDS011;74514;54.776;9.436;2024-02-14T03:46:25;52.22;;;21.95;;
35943;SDS011;74514;54.776;9.436;2024-02-14T03:48:52;49.58;;;21.88;;
35943;SDS011;74514;54.776;9.436;2024-02-14T03:53:48;49.25;;;19.83;;
35943;SDS011;74514;54.776;9.436;2024-02-14T03:56:16;46.55;;;18.65;;
35943;SDS011;74514;54.776;9.436;2024-02-14T03:58:44;57.78;;;21.88;;
35943;SDS011;74514;54.776;9.436;2024-02-14T04:01:14;51.67;;;20.58;;
35943;SDS011;74514;54.776;9.436;2024-02-14T04:03:42;51.40;;;20.98;;
35943;SDS011;74514;54.776;9.436;2024-02-14T04:06:09;60.47;;;21.35;;
35943;SDS011;74514;54.776;9.436;2024-02-14T04:08:38;53.83;;;21.98;;
35943;SDS011;74514;54.776;9.436;2024-02-14T04:11:05;59.25;;;22.63;;
35943;SDS011;74514;54.776;9.436;2024-02-14T04:13:32;51.97;;;21.80;;
35943;SDS011;74514;54.776;9.436;2024-02-14T04:16:00;52.47;;;21.27;;
35943;SDS011;74514;54.776;9.436;2024-02-14T04:18:34;51.05;;;22.02;;
35943;SDS011;74514;54.776;9.436;2024-02-14T04:21:02;48.95;;;21.00;;
35943;SDS011;74514;54.776;9.436;2024-02-14T04:23:31;48.53;;;20.35;;
35943;SDS011;74514;54.776;9.436;2024-02-14T04:25:58;52.13;;;21.63;;
35943;SDS011;74514;54.776;9.436;2024-02-14T04:28:26;51.20;;;21.75;;
35943;SDS011;74514;54.776;9.436;2024-02-14T04:30:53;53.20;;;22.50;;
35943;SDS011;74514;54.776;9.436;2024-02-14T04:33:24;56.92;;;21.60;;
35943;SDS011;74514;54.776;9.436;2024-02-14T04:35:52;52.22;;;21.25;;
35943;SDS011;74514;54.776;9.436;2024-02-14T04:38:21;56.30;;;21.17;;
35943;SDS011;74514;54.776;9.436;2024-02-14T04:40:49;46.03;;;21.23;;
35943;SDS011;74514;54.776;9.436;2024-02-14T04:43:16;50.83;;;20.85;;
35943;SDS011;74514;54.776;9.436;2024-02-14T04:45:43;48.13;;;20.00;;
35943;SDS011;74514;54.776;9.436;2024-02-14T04:48:11;45.00;;;18.95;;
35943;SDS011;74514;54.776;9.436;2024-02-14T04:50:39;46.72;;;20.33;;
35943;SDS011;74514;54.776;9.436;2024-02-14T04:53:07;55.33;;;20.55;;
35943;SDS011;74514;54.776;9.436;2024-02-14T04:55:34;53.40;;;21.20;;
35943;SDS011;74514;54.776;9.436;2024-02-14T04:58:01;52.95;;;20.80;;
35943;SDS011;74514;54.776;9.436;2024-02-14T05:00:29;52.83;;;21.92;;
35943;SDS011;74514;54.776;9.436;2024-02-14T05:02:56;57.13;;;22.55;;
35943;SDS011;74514;54.776;9.436;2024-02-14T05:05:24;56.13;;;23.17;;
35943;SDS011;74514;54.776;9.436;2024-02-14T05:07:57;54.28;;;21.95;;
35943;SDS011;74514;54.776;9.436;2024-02-14T05:10:25;48.38;;;21.05;;
35943;SDS011;74514;54.776;9.436;2024-02-14T05:12:52;52.00;;;19.55;;
35943;SDS011;74514;54.776;9.436;2024-02-14T05:15:20;50.10;;;22.42;;
35943;SDS011;74514;54.776;9.436;2024-02-14T05:17:47;49.85;;;20.90;;
35943;SDS011;74514;54.776;9.436;2024-02-14T05:20:16;55.75;;;21.17;;
35943;SDS011;74514;54.776;9.436;2024-02-14T05:22:43;48.58;;;19.88;;
35943;SDS011;74514;54.776;9.436;2024-02-14T05:25:11;50.30;;;21.92;;
35943;SDS011;74514;54.776;9.436;2024-02-14T05:27:51;52.88;;;20.38;;
35943;SDS011;74514;54.776;9.436;2024-02-14T05:30:18;51.17;;;21.92;;
35943;SDS011;74514;54.776;9.436;2024-02-14T05:32:50;52.50;;;20.95;;
35943;SDS011;74514;54.776;9.436;2024-02-14T05:35:21;49.50;;;18.25;;
35943;SDS011;74514;54.776;9.436;2024-02-14T05:37:49;61.65;;;24.67;;
35943;SDS011;74514;54.776;9.436;2024-02-14T05:40:18;62.40;;;23.23;;
35943;SDS011;74514;54.776;9.436;2024-02-14T05:42:45;48.03;;;19.65;;
35943;SDS011;74514;54.776;9.436;2024-02-14T05:45:13;54.60;;;21.15;;
35943;SDS011;74514;54.776;9.436;2024-02-14T05:47:42;57.17;;;22.15;;
35943;SDS011;74514;54.776;9.436;2024-02-14T05:50:10;56.20;;;21.60;;
35943;SDS011;74514;54.776;9.436;2024-02-14T05:52:39;59.92;;;21.23;;
35943;SDS011;74514;54.776;9.436;2024-02-14T05:55:07;50.83;;;18.52;;
35943;SDS011;74514;54.776;9.436;2024-02-14T05:57:49;48.92;;;20.17;;
35943;SDS011;74514;54.776;9.436;2024-02-14T06:00:17;43.33;;;18.83;;
35943;SDS011;74514;54.776;9.436;2024-02-14T06:05:13;48.15;;;19.98;;
35943;SDS011;74514;54.776;9.436;2024-02-14T06:07:40;51.97;;;19.30;;
35943;SDS011;74514;54.776;9.436;2024-02-14T06:10:08;54.28;;;20.67;;
35943;SDS011;74514;54.776;9.436;2024-02-14T06:12:35;49.33;;;19.27;;
35943;SDS011;74514;54.776;9.436;2024-02-14T06:15:03;45.15;;;18.77;;
35943;SDS011;74514;54.776;9.436;2024-02-14T06:17:34;53.00;;;18.63;;
35943;SDS011;74514;54.776;9.436;2024-02-14T06:20:01;51.40;;;20.83;;
35943;SDS011;74514;54.776;9.436;2024-02-14T06:22:35;48.25;;;18.17;;
35943;SDS011;74514;54.776;9.436;2024-02-14T06:25:13;42.80;;;16.60;;
35943;SDS011;74514;54.776;9.436;2024-02-14T06:27:51;45.67;;;17.80;;
35943;SDS011;74514;54.776;9.436;2024-02-14T06:30:21;51.80;;;19.30;;
35943;SDS011;74514;54.776;9.436;2024-02-14T06:32:48;45.85;;;17.95;;
35943;SDS011;74514;54.776;9.436;2024-02-14T06:35:16;46.17;;;18.30;;
35943;SDS011;74514;54.776;9.436;2024-02-14T06:37:47;48.35;;;17.98;;
35943;SDS011;74514;54.776;9.436;2024-02-14T06:40:25;47.40;;;19.42;;
35943;SDS011;74514;54.776;9.436;2024-02-14T06:42:53;47.80;;;17.70;;
35943;SDS011;74514;54.776;9.436;2024-02-14T06:45:22;54.95;;;19.23;;
35943;SDS011;74514;54.776;9.436;2024-02-14T06:48:00;52.28;;;19.58;;
35943;SDS011;74514;54.776;9.436;2024-02-14T06:50:27;41.88;;;17.00;;
35943;SDS011;74514;54.776;9.436;2024-02-14T06:52:57;43.72;;;16.35;;
35943;SDS011;74514;54.776;9.436;2024-02-14T06:55:28;39.67;;;15.93;;
35943;SDS011;74514;54.776;9.436;2024-02-14T07:00:23;38.72;;;17.05;;
35943;SDS011;74514;54.776;9.436;2024-02-14T07:02:51;41.72;;;15.38;;
35943;SDS011;74514;54.776;9.436;2024-02-14T07:05:18;37.28;;;16.15;;
35943;SDS011;74514;54.776;9.436;2024-02-14T07:07:45;38.47;;;16.10;;
35943;SDS011;74514;54.776;9.436;2024-02-14T07:10:13;37.75;;;15.70;;
35943;SDS011;74514;54.776;9.436;2024-02-14T07:12:40;46.15;;;16.92;;
35943;SDS011;74514;54.776;9.436;2024-02-14T07:15:07;39.22;;;16.30;;
35943;SDS011;74514;54.776;9.436;2024-02-14T07:17:35;43.85;;;16.02;;
35943;SDS011;74514;54.776;9.436;2024-02-14T07:20:03;41.83;;;16.70;;
35943;SDS011;74514;54.776;9.436;2024-02-14T07:22:34;38.63;;;16.77;;
35943;SDS011;74514;54.776;9.436;2024-02-14T07:25:01;43.35;;;16.70;;
35943;SDS011;74514;54.776;9.436;2024-02-14T07:27:30;43.38;;;15.98;;
35943;SDS011;74514;54.776;9.436;2024-02-14T07:29:57;53.55;;;18.65;;
35943;SDS011;74514;54.776;9.436;2024-02-14T07:32:25;46.40;;;16.70;;
35943;SDS011;74514;54.776;9.436;2024-02-14T07:34:52;45.10;;;16.27;;
35943;SDS011;74514;54.776;9.436;2024-02-14T07:37:19;48.58;;;17.20;;
35943;SDS011;74514;54.776;9.436;2024-02-14T07:39:47;45.00;;;17.98;;
35943;SDS011;74514;54.776;9.436;2024-02-14T07:42:15;46.50;;;17.27;;
35943;SDS011;74514;54.776;9.436;2024-02-14T07:44:42;41.53;;;16.10;;
35943;SDS011;74514;54.776;9.436;2024-02-14T07:47:10;40.78;;;15.57;;
35943;SDS011;74514;54.776;9.436;2024-02-14T07:49:38;47.63;;;18.38;;
35943;SDS011;74514;54.776;9.436;2024-02-14T07:52:05;42.08;;;14.98;;
35943;SDS011;74514;54.776;9.436;2024-02-14T07:54:32;45.70;;;17.27;;
35943;SDS011;74514;54.776;9.436;2024-02-14T07:57:00;44.70;;;17.85;;
35943;SDS011;74514;54.776;9.436;2024-02-14T07:59:28;50.25;;;17.15;;
35943;SDS011;74514;54.776;9.436;2024-02-14T08:01:57;38.92;;;15.98;;
35943;SDS011;74514;54.776;9.436;2024-02-14T08:04:25;41.88;;;16.30;;
35943;SDS011;74514;54.776;9.436;2024-02-14T08:06:52;42.22;;;16.23;;
35943;SDS011;74514;54.776;9.436;2024-02-14T08:09:20;42.63;;;16.00;;
35943;SDS011;74514;54.776;9.436;2024-02-14T08:11:47;55.35;;;18.38;;
35943;SDS011;74514;54.776;9.436;2024-02-14T08:14:15;44.60;;;17.20;;
35943;SDS011;74514;54.776;9.436;2024-02-14T08:16:42;43.25;;;17.38;;
35943;SDS011;74514;54.776;9.436;2024-02-14T08:19:09;42.72;;;16.45;;
35943;SDS011;74514;54.776;9.436;2024-02-14T08:21:37;46.17;;;17.05;;
35943;SDS011;74514;54.776;9.436;2024-02-14T08:24:04;44.72;;;15.55;;
35943;SDS011;74514;54.776;9.436;2024-02-14T08:26:32;46.88;;;15.90;;
35943;SDS011;74514;54.776;9.436;2024-02-14T08:29:00;47.10;;;16.25;;
35943;SDS011;74514;54.776;9.436;2024-02-14T08:31:27;45.00;;;16.40;;
35943;SDS011;74514;54.776;9.436;2024-02-14T08:33:55;41.25;;;15.07;;
35943;SDS011;74514;54.776;9.436;2024-02-14T08:36:22;48.80;;;16.35;;
35943;SDS011;74514;54.776;9.436;2024-02-14T08:38:50;44.33;;;14.73;;
35943;SDS011;74514;54.776;9.436;2024-02-14T08:41:17;44.70;;;16.00;;
35943;SDS011;74514;54.776;9.436;2024-02-14T08:43:45;45.33;;;15.77;;
35943;SDS011;74514;54.776;9.436;2024-02-14T08:46:16;42.42;;;16.83;;
35943;SDS011;74514;54.776;9.436;2024-02-14T08:48:44;39.60;;;15.20;;
35943;SDS011;74514;54.776;9.436;2024-02-14T08:51:16;39.80;;;14.88;;
35943;SDS011;74514;54.776;9.436;2024-02-14T08:56:12;36.47;;;13.48;;
35943;SDS011;74514;54.776;9.436;2024-02-14T09:01:08;38.17;;;13.57;;
35943;SDS011;74514;54.776;9.436;2024-02-14T09:03:42;31.73;;;13.65;;
35943;SDS011;74514;54.776;9.436;2024-02-14T09:06:17;34.17;;;13.73;;
35943;SDS011;74514;54.776;9.436;2024-02-14T09:08:47;36.50;;;14.15;;
35943;SDS011;74514;54.776;9.436;2024-02-14T09:11:15;38.05;;;13.27;;
35943;SDS011;74514;54.776;9.436;2024-02-14T09:13:42;29.77;;;14.00;;
35943;SDS011;74514;54.776;9.436;2024-02-14T09:16:10;38.50;;;14.50;;
35943;SDS011;74514;54.776;9.436;2024-02-14T09:18:40;30.08;;;14.25;;
35943;SDS011;74514;54.776;9.436;2024-02-14T09:21:08;34.60;;;14.38;;
35943;SDS011;74514;54.776;9.436;2024-02-14T09:23:36;30.05;;;12.65;;
35943;SDS011;74514;54.776;9.436;2024-02-14T09:26:07;38.00;;;14.60;;
35943;SDS011;74514;54.776;9.436;2024-02-14T09:28:34;33.15;;;13.25;;
35943;SDS011;74514;54.776;9.436;2024-02-14T09:31:02;32.45;;;13.50;;
35943;SDS011;74514;54.776;9.436;2024-02-14T09:33:31;32.40;;;12.75;;
35943;SDS011;74514;54.776;9.436;2024-02-14T09:35:59;31.83;;;12.50;;
35943;SDS011;74514;54.776;9.436;2024-02-14T09:38:26;29.27;;;12.80;;
35943;SDS011;74514;54.776;9.436;2024-02-14T09:40:54;31.92;;;12.90;;
35943;SDS011;74514;54.776;9.436;2024-02-14T09:43:38;30.80;;;12.70;;
35943;SDS011;74514;54.776;9.436;2024-02-14T09:46:06;36.20;;;13.02;;
35943;SDS011;74514;54.776;9.436;2024-02-14T09:48:34;27.30;;;11.90;;
35943;SDS011;74514;54.776;9.436;2024-02-14T09:51:05;30.65;;;12.40;;
35943;SDS011;74514;54.776;9.436;2024-02-14T09:53:34;29.90;;;13.13;;
35943;SDS011;74514;54.776;9.436;2024-02-14T09:56:02;33.53;;;13.18;;
35943;SDS011;74514;54.776;9.436;2024-02-14T09:58:30;30.02;;;12.43;;
35943;SDS011;74514;54.776;9.436;2024-02-14T10:00:59;31.33;;;12.27;;
35943;SDS011;74514;54.776;9.436;2024-02-14T10:10:13;29.23;;;11.82;;
35943;SDS011;74514;54.776;9.436;2024-02-14T10:12:41;30.30;;;12.93;;
35943;SDS011;74514;54.776;9.436;2024-02-14T10:15:09;44.97;;;15.43;;
35943;SDS011;74514;54.776;9.436;2024-02-14T10:17:38;50.70;;;20.00;;
35943;SDS011;74514;54.776;9.436;2024-02-14T10:20:08;39.28;;;14.45;;
35943;SDS011;74514;54.776;9.436;2024-02-14T10:22:35;36.72;;;14.68;;
35943;SDS011;74514;54.776;9.436;2024-02-14T10:25:03;39.08;;;13.75;;
35943;SDS011;74514;54.776;9.436;2024-02-14T10:27:31;32.92;;;13.98;;
35943;SDS011;74514;54.776;9.436;2024-02-14T10:29:59;36.90;;;15.30;;
35943;SDS011;74514;54.776;9.436;2024-02-14T10:32:27;34.03;;;13.90;;
35943;SDS011;74514;54.776;9.436;2024-02-14T10:34:54;29.63;;;12.02;;
35943;SDS011;74514;54.776;9.436;2024-02-14T10:37:22;37.65;;;14.32;;
35943;SDS011;74514;54.776;9.436;2024-02-14T10:39:50;32.08;;;14.07;;
35943;SDS011;74514;54.776;9.436;2024-02-14T10:42:19;36.28;;;13.80;;
35943;SDS011;74514;54.776;9.436;2024-02-14T10:44:46;35.28;;;13.82;;
35943;SDS011;74514;54.776;9.436;2024-02-14T10:47:18;34.75;;;14.20;;
35943;SDS011;74514;54.776;9.436;2024-02-14T10:49:47;39.58;;;15.05;;
35943;SDS011;74514;54.776;9.436;2024-02-14T10:52:15;36.17;;;14.20;;
35943;SDS011;74514;54.776;9.436;2024-02-14T10:54:43;36.17;;;14.18;;
35943;SDS011;74514;54.776;9.436;2024-02-14T10:57:13;31.95;;;12.63;;
35943;SDS011;74514;54.776;9.436;2024-02-14T10:59:43;36.10;;;15.38;;
35943;SDS011;74514;54.776;9.436;2024-02-14T11:02:11;40.47;;;13.73;;
35943;SDS011;74514;54.776;9.436;2024-02-14T11:04:39;38.00;;;14.48;;
35943;SDS011;74514;54.776;9.436;2024-02-14T11:07:08;35.80;;;14.82;;
35943;SDS011;74514;54.776;9.436;2024-02-14T11:09:36;39.67;;;14.30;;
35943;SDS011;74514;54.776;9.436;2024-02-14T11:12:06;36.97;;;14.32;;
35943;SDS011;74514;54.776;9.436;2024-02-14T11:14:35;34.08;;;13.70;;
35943;SDS011;74514;54.776;9.436;2024-02-14T11:17:04;35.97;;;12.75;;
35943;SDS011;74514;54.776;9.436;2024-02-14T11:19:32;38.08;;;13.85;;
35943;SDS011;74514;54.776;9.436;2024-02-14T11:22:26;28.35;;;11.65;;
35943;SDS011;74514;54.776;9.436;2024-02-14T11:24:58;27.05;;;10.88;;
35943;SDS011;74514;54.776;9.436;2024-02-14T11:27:33;32.08;;;12.25;;
35943;SDS011;74514;54.776;9.436;2024-02-14T11:30:01;30.13;;;10.25;;
35943;SDS011;74514;54.776;9.436;2024-02-14T11:32:31;28.75;;;11.60;;
35943;SDS011;74514;54.776;9.436;2024-02-14T11:34:59;31.80;;;12.63;;
35943;SDS011;74514;54.776;9.436;2024-02-14T11:37:27;34.55;;;12.63;;
35943;SDS011;74514;54.776;9.436;2024-02-14T11:39:54;28.70;;;12.30;;
35943;SDS011;74514;54.776;9.436;2024-02-14T11:42:24;30.08;;;12.02;;
35943;SDS011;74514;54.776;9.436;2024-02-14T11:44:53;29.52;;;11.77;;
35943;SDS011;74514;54.776;9.436;2024-02-14T11:47:23;28.55;;;12.23;;
35943;SDS011;74514;54.776;9.436;2024-02-14T11:49:51;27.38;;;10.35;;
35943;SDS011;74514;54.776;9.436;2024-02-14T11:52:19;26.42;;;10.73;;
35943;SDS011;74514;54.776;9.436;2024-02-14T11:54:47;23.25;;;9.43;;
35943;SDS011;74514;54.776;9.436;2024-02-14T11:57:17;21.48;;;9.48;;
35943;SDS011;74514;54.776;9.436;2024-02-14T11:59:48;21.98;;;10.02;;
35943;SDS011;74514;54.776;9.436;2024-02-14T12:02:17;20.45;;;8.52;;
35943;SDS011;74514;54.776;9.436;2024-02-14T12:04:47;21.42;;;9.05;;
35943;SDS011;74514;54.776;9.436;2024-02-14T12:07:18;20.38;;;8.07;;
35943;SDS011;74514;54.776;9.436;2024-02-14T12:09:45;20.73;;;8.60;;
35943;SDS011;74514;54.776;9.436;2024-02-14T12:12:14;16.55;;;8.52;;
35943;SDS011;74514;54.776;9.436;2024-02-14T12:14:43;19.92;;;8.50;;
35943;SDS011;74514;54.776;9.436;2024-02-14T12:17:11;21.15;;;7.60;;
35943;SDS011;74514;54.776;9.436;2024-02-14T12:19:38;18.63;;;8.02;;
35943;SDS011;74514;54.776;9.436;2024-02-14T12:22:12;18.55;;;7.97;;
35943;SDS011;74514;54.776;9.436;2024-02-14T12:24:45;14.68;;;6.97;;
35943;SDS011;74514;54.776;9.436;2024-02-14T12:27:16;16.40;;;7.10;;
35943;SDS011;74514;54.776;9.436;2024-02-14T12:29:45;18.50;;;7.47;;
35943;SDS011;74514;54.776;9.436;2024-02-14T12:32:15;13.85;;;6.25;;
35943;SDS011;74514;54.776;9.436;2024-02-14T12:34:43;14.50;;;6.95;;
35943;SDS011;74514;54.776;9.436;2024-02-14T12:37:11;12.25;;;5.60;;
35943;SDS011;74514;54.776;9.436;2024-02-14T12:39:38;12.55;;;6.60;;
35943;SDS011;74514;54.776;9.436;2024-02-14T12:42:07;10.63;;;4.75;;
35943;SDS011;74514;54.776;9.436;2024-02-14T12:44:35;12.75;;;5.90;;
35943;SDS011;74514;54.776;9.436;2024-02-14T12:47:03;12.55;;;6.28;;
35943;SDS011;74514;54.776;9.436;2024-02-14T12:49:31;12.13;;;5.07;;
35943;SDS011;74514;54.776;9.436;2024-02-14T12:51:59;13.48;;;5.65;;
35943;SDS011;74514;54.776;9.436;2024-02-14T12:54:26;14.38;;;5.90;;
35943;SDS011;74514;54.776;9.436;2024-02-14T12:56:53;15.02;;;5.95;;
35943;SDS011;74514;54.776;9.436;2024-02-14T12:59:21;12.82;;;5.70;;
35943;SDS011;74514;54.776;9.436;2024-02-14T13:01:48;15.57;;;6.47;;
35943;SDS011;74514;54.776;9.436;2024-02-14T13:04:16;14.65;;;5.75;;
35943;SDS011;74514;54.776;9.436;2024-02-14T13:06:43;17.58;;;6.35;;
35943;SDS011;74514;54.776;9.436;2024-02-14T13:09:11;15.10;;;5.93;;
35943;SDS011;74514;54.776;9.436;2024-02-14T13:11:43;15.05;;;7.22;;
35943;SDS011;74514;54.776;9.436;2024-02-14T13:14:10;17.60;;;6.57;;
35943;SDS011;74514;54.776;9.436;2024-02-14T13:16:38;18.98;;;6.88;;
35943;SDS011;74514;54.776;9.436;2024-02-14T13:19:06;15.27;;;6.53;;
35943;SDS011;74514;54.776;9.436;2024-02-14T13:21:33;15.57;;;6.40;;
35943;SDS011;74514;54.776;9.436;2024-02-14T13:24:01;15.27;;;6.47;;
35943;SDS011;74514;54.776;9.436;2024-02-14T13:26:29;13.77;;;6.22;;
35943;SDS011;74514;54.776;9.436;2024-02-14T13:28:56;15.82;;;6.45;;
35943;SDS011;74514;54.776;9.436;2024-02-14T13:31:23;15.07;;;6.35;;
35943;SDS011;74514;54.776;9.436;2024-02-14T13:33:51;13.40;;;6.10;;
35943;SDS011;74514;54.776;9.436;2024-02-14T13:36:20;12.02;;;5.50;;
35943;SDS011;74514;54.776;9.436;2024-02-14T13:38:50;11.40;;;6.05;;
35943;SDS011;74514;54.776;9.436;2024-02-14T13:41:18;12.88;;;5.03;;
35943;SDS011;74514;54.776;9.436;2024-02-14T13:43:45;12.45;;;5.55;;
35943;SDS011;74514;54.776;9.436;2024-02-14T13:46:12;14.43;;;6.35;;
35943;SDS011;74514;54.776;9.436;2024-02-14T13:48:41;16.25;;;5.60;;
35943;SDS011;74514;54.776;9.436;2024-02-14T13:51:08;13.50;;;5.40;;
35943;SDS011;74514;54.776;9.436;2024-02-14T13:53:37;15.15;;;6.03;;
35943;SDS011;74514;54.776;9.436;2024-02-14T13:56:04;14.63;;;5.82;;
35943;SDS011;74514;54.776;9.436;2024-02-14T13:58:32;12.95;;;5.55;;
35943;SDS011;74514;54.776;9.436;2024-02-14T14:00:59;15.52;;;5.85;;
35943;SDS011;74514;54.776;9.436;2024-02-14T14:03:27;16.27;;;6.07;;
35943;SDS011;74514;54.776;9.436;2024-02-14T14:05:54;16.13;;;6.50;;
35943;SDS011;74514;54.776;9.436;2024-02-14T14:08:23;24.23;;;6.95;;
35943;SDS011;74514;54.776;9.436;2024-02-14T14:10:50;17.17;;;6.47;;
35943;SDS011;74514;54.776;9.436;2024-02-14T14:13:17;17.80;;;5.97;;
35943;SDS011;74514;54.776;9.436;2024-02-14T14:15:45;13.10;;;5.35;;
35943;SDS011;74514;54.776;9.436;2024-02-14T14:18:12;15.40;;;5.15;;
35943;SDS011;74514;54.776;9.436;2024-02-14T14:20:39;16.73;;;5.07;;
35943;SDS011;74514;54.776;9.436;2024-02-14T14:23:07;18.60;;;6.78;;
35943;SDS011;74514;54.776;9.436;2024-02-14T14:25:34;16.33;;;6.20;;
35943;SDS011;74514;54.776;9.436;2024-02-14T14:28:04;15.15;;;5.60;;
35943;SDS011;74514;54.776;9.436;2024-02-14T14:30:35;17.17;;;5.72;;
35943;SDS011;74514;54.776;9.436;2024-02-14T14:33:02;12.98;;;5.40;;
35943;SDS011;74514;54.776;9.436;2024-02-14T14:35:30;15.15;;;7.20;;
35943;SDS011;74514;54.776;9.436;2024-02-14T14:38:01;12.88;;;5.57;;
35943;SDS011;74514;54.776;9.436;2024-02-14T14:40:30;15.70;;;5.53;;
35943;SDS011;74514;54.776;9.436;2024-02-14T14:42:57;14.15;;;4.47;;
35943;SDS011;74514;54.776;9.436;2024-02-14T14:45:25;10.82;;;3.92;;
35943;SDS011;74514;54.776;9.436;2024-02-14T14:47:55;9.88;;;3.47;;
35943;SDS011;74514;54.776;9.436;2024-02-14T14:50:23;6.28;;;3.25;;
35943;SDS011;74514;54.776;9.436;2024-02-14T14:52:52;11.23;;;3.47;;
35943;SDS011;74514;54.776;9.436;2024-02-14T14:55:20;10.80;;;4.20;;